sensor_id;sensor_type;location;lat;lon;timestamp;temperature;humidity
51619;DHT22;38518;53.164;5.430;2022-11-13T00:03:43;6.00;99.90
51619;DHT22;38518;53.164;5.430;2022-11-13T00:06:10;5.70;96.50
51619;DHT22;38518;53.164;5.430;2022-11-13T00:08:36;5.90;99.90
51619;DHT22;38518;53.164;5.430;2022-11-13T00:11:11;5.20;99.90
51619;DHT22;38518;53.164;5.430;2022-11-13T00:13:37;5.40;99.90
51619;DHT22;38518;53.164;5.430;2022-11-13T00:16:06;5.70;99.90
51619;DHT22;38518;53.164;5.430;2022-11-13T00:18:35;5.30;99.90
51619;DHT22;38518;53.164;5.430;2022-11-13T00:23:32;5.40;99.90
51619;DHT22;38518;53.164;5.430;2022-11-13T00:26:11;5.60;99.90
51619;DHT22;38518;53.164;5.430;2022-11-13T00:28:38;5.60;99.90
51619;DHT22;38518;53.164;5.430;2022-11-13T00:31:05;5.30;99.90
51619;DHT22;38518;53.164;5.430;2022-11-13T00:33:32;5.40;99.90
51619;DHT22;38518;53.164;5.430;2022-11-13T00:36:03;5.70;99.90
51619;DHT22;38518;53.164;5.430;2022-11-13T00:38:29;5.60;99.90
51619;DHT22;38518;53.164;5.430;2022-11-13T00:40:55;5.60;99.90
51619;DHT22;38518;53.164;5.430;2022-11-13T00:43:20;5.30;99.90
51619;DHT22;38518;53.164;5.430;2022-11-13T00:45:46;5.30;99.90
51619;DHT22;38518;53.164;5.430;2022-11-13T00:48:12;5.50;99.90
51619;DHT22;38518;53.164;5.430;2022-11-13T00:50:37;5.50;99.90
51619;DHT22;38518;53.164;5.430;2022-11-13T00:53:03;6.00;99.90
51619;DHT22;38518;53.164;5.430;2022-11-13T00:55:29;5.50;99.90
51619;DHT22;38518;53.164;5.430;2022-11-13T00:57:55;5.70;99.90
51619;DHT22;38518;53.164;5.430;2022-11-13T01:00:20;5.40;99.90
51619;DHT22;38518;53.164;5.430;2022-11-13T01:02:46;5.60;99.90
51619;DHT22;38518;53.164;5.430;2022-11-13T01:05:12;5.20;99.90
51619;DHT22;38518;53.164;5.430;2022-11-13T01:07:38;5.50;99.90
51619;DHT22;38518;53.164;5.430;2022-11-13T01:10:04;5.50;99.90
51619;DHT22;38518;53.164;5.430;2022-11-13T01:12:31;5.90;99.90
51619;DHT22;38518;53.164;5.430;2022-11-13T01:14:57;5.70;99.90
51619;DHT22;38518;53.164;5.430;2022-11-13T01:17:22;5.30;99.90
51619;DHT22;38518;53.164;5.430;2022-11-13T01:19:48;5.70;99.90
51619;DHT22;38518;53.164;5.430;2022-11-13T01:22:14;5.60;99.90
51619;DHT22;38518;53.164;5.430;2022-11-13T01:24:40;5.50;99.90
51619;DHT22;38518;53.164;5.430;2022-11-13T01:27:05;6.20;99.90
51619;DHT22;38518;53.164;5.430;2022-11-13T01:29:32;5.80;99.90
51619;DHT22;38518;53.164;5.430;2022-11-13T01:31:58;5.60;99.90
51619;DHT22;38518;53.164;5.430;2022-11-13T01:34:24;5.80;99.90
51619;DHT22;38518;53.164;5.430;2022-11-13T01:36:50;5.80;99.90
51619;DHT22;38518;53.164;5.430;2022-11-13T01:39:16;5.90;99.90
51619;DHT22;38518;53.164;5.430;2022-11-13T01:41:42;5.50;99.90
51619;DHT22;38518;53.164;5.430;2022-11-13T01:44:16;5.20;99.90
51619;DHT22;38518;53.164;5.430;2022-11-13T01:46:53;5.60;99.90
51619;DHT22;38518;53.164;5.430;2022-11-13T01:49:37;6.00;99.90
51619;DHT22;38518;53.164;5.430;2022-11-13T01:52:10;6.20;99.90
51619;DHT22;38518;53.164;5.430;2022-11-13T01:54:45;5.50;99.90
51619;DHT22;38518;53.164;5.430;2022-11-13T01:57:12;5.40;99.90
51619;DHT22;38518;53.164;5.430;2022-11-13T01:59:42;5.70;99.90
51619;DHT22;38518;53.164;5.430;2022-11-13T02:02:08;5.70;99.90
51619;DHT22;38518;53.164;5.430;2022-11-13T02:04:34;5.30;99.90
51619;DHT22;38518;53.164;5.430;2022-11-13T02:07:06;5.20;99.90
51619;DHT22;38518;53.164;5.430;2022-11-13T02:09:43;5.60;99.90
51619;DHT22;38518;53.164;5.430;2022-11-13T02:12:15;5.50;99.90
51619;DHT22;38518;53.164;5.430;2022-11-13T02:14:44;5.70;99.90
51619;DHT22;38518;53.164;5.430;2022-11-13T02:17:14;5.40;99.90
51619;DHT22;38518;53.164;5.430;2022-11-13T02:19:46;5.10;99.90
51619;DHT22;38518;53.164;5.430;2022-11-13T02:22:18;5.40;99.90
51619;DHT22;38518;53.164;5.430;2022-11-13T02:24:46;5.60;99.90
51619;DHT22;38518;53.164;5.430;2022-11-13T02:27:19;6.00;99.90
51619;DHT22;38518;53.164;5.430;2022-11-13T02:29:46;5.70;99.90
51619;DHT22;38518;53.164;5.430;2022-11-13T02:32:12;5.10;99.90
51619;DHT22;38518;53.164;5.430;2022-11-13T02:34:38;5.50;99.90
51619;DHT22;38518;53.164;5.430;2022-11-13T02:37:04;5.20;99.90
51619;DHT22;38518;53.164;5.430;2022-11-13T02:39:29;5.60;99.90
51619;DHT22;38518;53.164;5.430;2022-11-13T02:41:55;5.10;99.90
51619;DHT22;38518;53.164;5.430;2022-11-13T02:44:21;5.50;99.90
51619;DHT22;38518;53.164;5.430;2022-11-13T02:46:47;5.40;99.90
51619;DHT22;38518;53.164;5.430;2022-11-13T02:49:12;5.30;99.90
51619;DHT22;38518;53.164;5.430;2022-11-13T02:51:38;5.60;99.90
51619;DHT22;38518;53.164;5.430;2022-11-13T02:54:04;5.40;99.90
51619;DHT22;38518;53.164;5.430;2022-11-13T02:56:30;5.50;99.90
51619;DHT22;38518;53.164;5.430;2022-11-13T02:58:55;5.10;99.90
51619;DHT22;38518;53.164;5.430;2022-11-13T03:01:21;5.40;99.90
51619;DHT22;38518;53.164;5.430;2022-11-13T03:03:47;5.30;99.90
51619;DHT22;38518;53.164;5.430;2022-11-13T03:06:12;5.50;99.90
51619;DHT22;38518;53.164;5.430;2022-11-13T03:08:38;5.70;99.90
51619;DHT22;38518;53.164;5.430;2022-11-13T03:11:09;5.30;99.90
51619;DHT22;38518;53.164;5.430;2022-11-13T03:13:36;5.40;99.90
51619;DHT22;38518;53.164;5.430;2022-11-13T03:16:08;5.30;99.90
51619;DHT22;38518;53.164;5.430;2022-11-13T03:18:34;5.80;99.90
51619;DHT22;38518;53.164;5.430;2022-11-13T03:21:06;5.60;99.90
51619;DHT22;38518;53.164;5.430;2022-11-13T03:23:32;5.40;99.90
51619;DHT22;38518;53.164;5.430;2022-11-13T03:26:06;5.70;99.90
51619;DHT22;38518;53.164;5.430;2022-11-13T03:28:33;5.80;99.90
51619;DHT22;38518;53.164;5.430;2022-11-13T03:30:58;5.40;99.90
51619;DHT22;38518;53.164;5.430;2022-11-13T03:33:24;5.90;99.90
51619;DHT22;38518;53.164;5.430;2022-11-13T03:35:50;6.00;99.90
51619;DHT22;38518;53.164;5.430;2022-11-13T03:38:16;4.70;99.90
51619;DHT22;38518;53.164;5.430;2022-11-13T03:40:42;5.70;99.90
51619;DHT22;38518;53.164;5.430;2022-11-13T03:43:07;6.10;99.90
51619;DHT22;38518;53.164;5.430;2022-11-13T03:45:33;6.00;99.90
51619;DHT22;38518;53.164;5.430;2022-11-13T03:47:59;6.10;99.90
51619;DHT22;38518;53.164;5.430;2022-11-13T03:50:25;5.20;99.90
51619;DHT22;38518;53.164;5.430;2022-11-13T03:52:51;5.70;99.90
51619;DHT22;38518;53.164;5.430;2022-11-13T03:55:17;5.90;99.90
51619;DHT22;38518;53.164;5.430;2022-11-13T03:57:43;5.30;99.90
51619;DHT22;38518;53.164;5.430;2022-11-13T04:00:09;5.80;99.90
51619;DHT22;38518;53.164;5.430;2022-11-13T04:02:35;5.40;99.90
51619;DHT22;38518;53.164;5.430;2022-11-13T04:05:01;6.00;99.90
51619;DHT22;38518;53.164;5.430;2022-11-13T04:07:27;5.80;99.90
51619;DHT22;38518;53.164;5.430;2022-11-13T04:09:52;5.80;99.90
51619;DHT22;38518;53.164;5.430;2022-11-13T04:12:18;6.00;99.90
51619;DHT22;38518;53.164;5.430;2022-11-13T04:14:44;6.10;99.90
51619;DHT22;38518;53.164;5.430;2022-11-13T04:17:09;5.90;99.90
51619;DHT22;38518;53.164;5.430;2022-11-13T04:19:35;5.80;99.90
51619;DHT22;38518;53.164;5.430;2022-11-13T04:22:01;5.70;99.90
51619;DHT22;38518;53.164;5.430;2022-11-13T04:24:27;5.20;99.90
51619;DHT22;38518;53.164;5.430;2022-11-13T04:26:52;6.00;99.90
51619;DHT22;38518;53.164;5.430;2022-11-13T04:29:18;5.70;99.90
51619;DHT22;38518;53.164;5.430;2022-11-13T04:31:44;5.90;99.90
51619;DHT22;38518;53.164;5.430;2022-11-13T04:34:09;5.90;99.90
51619;DHT22;38518;53.164;5.430;2022-11-13T04:36:35;5.40;99.90
51619;DHT22;38518;53.164;5.430;2022-11-13T04:39:01;5.70;99.90
51619;DHT22;38518;53.164;5.430;2022-11-13T04:41:27;6.20;99.90
51619;DHT22;38518;53.164;5.430;2022-11-13T04:44:11;5.90;99.90
51619;DHT22;38518;53.164;5.430;2022-11-13T04:46:37;5.90;99.90
51619;DHT22;38518;53.164;5.430;2022-11-13T04:49:03;6.00;99.90
51619;DHT22;38518;53.164;5.430;2022-11-13T04:51:28;5.70;99.90
51619;DHT22;38518;53.164;5.430;2022-11-13T04:53:55;5.50;99.90
51619;DHT22;38518;53.164;5.430;2022-11-13T04:56:21;5.70;99.90
51619;DHT22;38518;53.164;5.430;2022-11-13T04:58:47;5.60;99.90
51619;DHT22;38518;53.164;5.430;2022-11-13T05:01:12;5.90;99.90
51619;DHT22;38518;53.164;5.430;2022-11-13T05:03:38;5.80;99.90
51619;DHT22;38518;53.164;5.430;2022-11-13T05:06:06;5.80;99.90
51619;DHT22;38518;53.164;5.430;2022-11-13T05:08:32;5.80;99.90
51619;DHT22;38518;53.164;5.430;2022-11-13T05:10:59;5.30;99.90
51619;DHT22;38518;53.164;5.430;2022-11-13T05:13:25;6.00;99.90
51619;DHT22;38518;53.164;5.430;2022-11-13T05:15:58;5.60;99.90
51619;DHT22;38518;53.164;5.430;2022-11-13T05:18:24;5.60;99.90
51619;DHT22;38518;53.164;5.430;2022-11-13T05:20:50;6.00;98.30
51619;DHT22;38518;53.164;5.430;2022-11-13T05:23:16;5.80;99.90
51619;DHT22;38518;53.164;5.430;2022-11-13T05:25:42;5.60;99.90
51619;DHT22;38518;53.164;5.430;2022-11-13T05:28:07;5.80;99.90
51619;DHT22;38518;53.164;5.430;2022-11-13T05:30:33;5.40;99.90
51619;DHT22;38518;53.164;5.430;2022-11-13T05:32:59;5.50;99.90
51619;DHT22;38518;53.164;5.430;2022-11-13T05:35:24;5.60;99.90
51619;DHT22;38518;53.164;5.430;2022-11-13T05:37:50;5.50;99.80
51619;DHT22;38518;53.164;5.430;2022-11-13T05:40:16;5.70;91.40
51619;DHT22;38518;53.164;5.430;2022-11-13T05:42:41;5.40;95.20
51619;DHT22;38518;53.164;5.430;2022-11-13T05:45:08;5.60;95.40
51619;DHT22;38518;53.164;5.430;2022-11-13T05:47:33;5.90;96.20
51619;DHT22;38518;53.164;5.430;2022-11-13T05:49:59;5.50;95.10
51619;DHT22;38518;53.164;5.430;2022-11-13T05:52:25;4.80;95.50
51619;DHT22;38518;53.164;5.430;2022-11-13T05:54:51;5.40;94.10
51619;DHT22;38518;53.164;5.430;2022-11-13T05:57:16;5.30;90.90
51619;DHT22;38518;53.164;5.430;2022-11-13T05:59:42;5.50;92.50
51619;DHT22;38518;53.164;5.430;2022-11-13T06:02:08;5.50;79.00
51619;DHT22;38518;53.164;5.430;2022-11-13T06:04:34;5.50;95.20
51619;DHT22;38518;53.164;5.430;2022-11-13T06:06:59;5.70;62.60
51619;DHT22;38518;53.164;5.430;2022-11-13T06:09:25;5.40;60.00
51619;DHT22;38518;53.164;5.430;2022-11-13T06:11:51;5.50;82.20
51619;DHT22;38518;53.164;5.430;2022-11-13T06:14:16;5.70;73.30
51619;DHT22;38518;53.164;5.430;2022-11-13T06:16:42;5.40;97.20
51619;DHT22;38518;53.164;5.430;2022-11-13T06:19:09;5.20;98.20
51619;DHT22;38518;53.164;5.430;2022-11-13T06:21:38;5.50;67.20
51619;DHT22;38518;53.164;5.430;2022-11-13T06:24:04;6.50;95.60
51619;DHT22;38518;53.164;5.430;2022-11-13T06:26:35;5.60;91.20
51619;DHT22;38518;53.164;5.430;2022-11-13T06:29:02;5.50;85.90
51619;DHT22;38518;53.164;5.430;2022-11-13T06:31:30;5.60;95.10
51619;DHT22;38518;53.164;5.430;2022-11-13T06:33:57;5.50;96.60
51619;DHT22;38518;53.164;5.430;2022-11-13T06:36:26;5.30;77.60
51619;DHT22;38518;53.164;5.430;2022-11-13T06:38:52;5.30;99.90
51619;DHT22;38518;53.164;5.430;2022-11-13T06:41:21;5.80;99.90
51619;DHT22;38518;53.164;5.430;2022-11-13T06:43:47;5.50;99.60
51619;DHT22;38518;53.164;5.430;2022-11-13T06:46:19;5.90;96.60
51619;DHT22;38518;53.164;5.430;2022-11-13T06:48:46;6.10;97.30
51619;DHT22;38518;53.164;5.430;2022-11-13T06:51:15;5.40;90.30
51619;DHT22;38518;53.164;5.430;2022-11-13T06:53:41;5.80;99.20
51619;DHT22;38518;53.164;5.430;2022-11-13T06:56:07;5.70;95.70
51619;DHT22;38518;53.164;5.430;2022-11-13T06:58:33;5.40;97.30
51619;DHT22;38518;53.164;5.430;2022-11-13T07:01:11;5.60;97.30
51619;DHT22;38518;53.164;5.430;2022-11-13T07:03:37;5.60;95.90
51619;DHT22;38518;53.164;5.430;2022-11-13T07:06:05;5.60;98.40
51619;DHT22;38518;53.164;5.430;2022-11-13T07:08:31;5.60;95.90
51619;DHT22;38518;53.164;5.430;2022-11-13T07:10:58;5.40;99.90
51619;DHT22;38518;53.164;5.430;2022-11-13T07:13:25;5.30;95.80
51619;DHT22;38518;53.164;5.430;2022-11-13T07:15:51;5.60;73.60
51619;DHT22;38518;53.164;5.430;2022-11-13T07:18:17;4.70;98.20
51619;DHT22;38518;53.164;5.430;2022-11-13T07:20:43;5.60;99.60
51619;DHT22;38518;53.164;5.430;2022-11-13T07:23:09;5.50;96.40
51619;DHT22;38518;53.164;5.430;2022-11-13T07:25:35;5.60;99.90
51619;DHT22;38518;53.164;5.430;2022-11-13T07:28:01;5.50;95.80
51619;DHT22;38518;53.164;5.430;2022-11-13T07:30:27;5.30;99.90
51619;DHT22;38518;53.164;5.430;2022-11-13T07:32:53;5.50;99.90
51619;DHT22;38518;53.164;5.430;2022-11-13T07:35:19;5.50;99.90
51619;DHT22;38518;53.164;5.430;2022-11-13T07:37:45;5.60;99.90
51619;DHT22;38518;53.164;5.430;2022-11-13T07:40:11;5.90;99.90
51619;DHT22;38518;53.164;5.430;2022-11-13T07:42:38;6.50;99.90
51619;DHT22;38518;53.164;5.430;2022-11-13T07:45:05;7.00;99.90
51619;DHT22;38518;53.164;5.430;2022-11-13T07:47:31;6.70;99.90
51619;DHT22;38518;53.164;5.430;2022-11-13T07:49:56;7.10;99.90
51619;DHT22;38518;53.164;5.430;2022-11-13T07:52:22;6.90;99.90
51619;DHT22;38518;53.164;5.430;2022-11-13T07:54:48;7.00;99.90
51619;DHT22;38518;53.164;5.430;2022-11-13T07:57:14;7.20;98.80
51619;DHT22;38518;53.164;5.430;2022-11-13T07:59:39;7.30;99.90
51619;DHT22;38518;53.164;5.430;2022-11-13T08:02:05;7.40;99.90
51619;DHT22;38518;53.164;5.430;2022-11-13T08:04:33;7.80;64.50
51619;DHT22;38518;53.164;5.430;2022-11-13T08:06:58;7.20;1.00
51619;DHT22;38518;53.164;5.430;2022-11-13T08:09:24;7.20;1.00
51619;DHT22;38518;53.164;5.430;2022-11-13T08:11:50;7.20;1.00
51619;DHT22;38518;53.164;5.430;2022-11-13T08:14:15;7.30;1.00
51619;DHT22;38518;53.164;5.430;2022-11-13T08:16:41;7.30;1.00
51619;DHT22;38518;53.164;5.430;2022-11-13T08:19:07;7.30;1.00
51619;DHT22;38518;53.164;5.430;2022-11-13T08:21:34;7.30;1.00
51619;DHT22;38518;53.164;5.430;2022-11-13T08:24:00;7.10;1.00
51619;DHT22;38518;53.164;5.430;2022-11-13T08:26:26;7.60;1.00
51619;DHT22;38518;53.164;5.430;2022-11-13T08:28:51;7.50;1.00
51619;DHT22;38518;53.164;5.430;2022-11-13T08:31:17;7.60;1.00
51619;DHT22;38518;53.164;5.430;2022-11-13T08:33:43;7.50;1.00
51619;DHT22;38518;53.164;5.430;2022-11-13T08:36:10;8.30;1.00
51619;DHT22;38518;53.164;5.430;2022-11-13T08:38:36;7.90;1.00
51619;DHT22;38518;53.164;5.430;2022-11-13T08:41:04;8.10;1.00
51619;DHT22;38518;53.164;5.430;2022-11-13T08:43:30;8.40;1.00
51619;DHT22;38518;53.164;5.430;2022-11-13T08:45:56;8.30;1.00
51619;DHT22;38518;53.164;5.430;2022-11-13T08:48:23;8.80;35.50
51619;DHT22;38518;53.164;5.430;2022-11-13T08:50:52;8.90;1.00
51619;DHT22;38518;53.164;5.430;2022-11-13T08:53:19;9.30;1.00
51619;DHT22;38518;53.164;5.430;2022-11-13T08:55:45;9.40;1.00
51619;DHT22;38518;53.164;5.430;2022-11-13T08:58:11;10.00;1.00
51619;DHT22;38518;53.164;5.430;2022-11-13T09:00:36;10.60;1.00
51619;DHT22;38518;53.164;5.430;2022-11-13T09:03:02;10.90;99.90
51619;DHT22;38518;53.164;5.430;2022-11-13T09:05:28;10.80;99.90
51619;DHT22;38518;53.164;5.430;2022-11-13T09:07:58;10.10;30.40
51619;DHT22;38518;53.164;5.430;2022-11-13T09:10:25;10.80;60.30
51619;DHT22;38518;53.164;5.430;2022-11-13T09:12:58;11.20;99.90
51619;DHT22;38518;53.164;5.430;2022-11-13T09:15:27;11.50;24.80
51619;DHT22;38518;53.164;5.430;2022-11-13T09:18:00;12.00;1.00
51619;DHT22;38518;53.164;5.430;2022-11-13T09:20:28;12.50;1.00
51619;DHT22;38518;53.164;5.430;2022-11-13T09:23:03;12.60;1.00
51619;DHT22;38518;53.164;5.430;2022-11-13T09:35:23;15.70;99.90
51619;DHT22;38518;53.164;5.430;2022-11-13T09:48:19;17.50;99.90
51619;DHT22;38518;53.164;5.430;2022-11-13T09:50:47;17.40;99.90
51619;DHT22;38518;53.164;5.430;2022-11-13T09:53:14;19.20;99.90
51619;DHT22;38518;53.164;5.430;2022-11-13T16:36:03;10.40;91.80
51619;DHT22;38518;53.164;5.430;2022-11-13T16:38:28;10.20;91.80
51619;DHT22;38518;53.164;5.430;2022-11-13T16:40:54;10.10;97.60
51619;DHT22;38518;53.164;5.430;2022-11-13T16:43:20;10.00;99.70
51619;DHT22;38518;53.164;5.430;2022-11-13T16:45:46;10.00;99.90
51619;DHT22;38518;53.164;5.430;2022-11-13T16:48:13;9.90;99.90
51619;DHT22;38518;53.164;5.430;2022-11-13T16:50:39;10.40;99.90
51619;DHT22;38518;53.164;5.430;2022-11-13T16:53:06;9.80;99.90
51619;DHT22;38518;53.164;5.430;2022-11-13T16:55:34;9.70;99.90
51619;DHT22;38518;53.164;5.430;2022-11-13T16:58:00;9.70;99.90
51619;DHT22;38518;53.164;5.430;2022-11-13T17:00:26;9.60;99.90
51619;DHT22;38518;53.164;5.430;2022-11-13T17:02:52;9.60;99.90
51619;DHT22;38518;53.164;5.430;2022-11-13T17:05:20;9.90;99.90
51619;DHT22;38518;53.164;5.430;2022-11-13T17:07:46;9.50;99.90
51619;DHT22;38518;53.164;5.430;2022-11-13T17:10:14;9.40;99.90
51619;DHT22;38518;53.164;5.430;2022-11-13T17:12:40;9.40;99.90
51619;DHT22;38518;53.164;5.430;2022-11-13T17:15:07;9.30;99.90
51619;DHT22;38518;53.164;5.430;2022-11-13T17:17:32;9.20;99.90
51619;DHT22;38518;53.164;5.430;2022-11-13T17:19:58;9.70;99.90
51619;DHT22;38518;53.164;5.430;2022-11-13T17:22:24;9.10;99.90
51619;DHT22;38518;53.164;5.430;2022-11-13T17:24:49;9.20;99.90
51619;DHT22;38518;53.164;5.430;2022-11-13T17:27:16;9.10;99.90
51619;DHT22;38518;53.164;5.430;2022-11-13T17:29:42;9.00;99.90
51619;DHT22;38518;53.164;5.430;2022-11-13T17:32:07;9.10;99.90
51619;DHT22;38518;53.164;5.430;2022-11-13T17:34:33;9.00;99.90
51619;DHT22;38518;53.164;5.430;2022-11-13T17:36:59;9.00;99.90
51619;DHT22;38518;53.164;5.430;2022-11-13T17:39:26;9.00;99.90
51619;DHT22;38518;53.164;5.430;2022-11-13T17:41:52;9.00;99.90
51619;DHT22;38518;53.164;5.430;2022-11-13T17:44:18;9.40;99.90
51619;DHT22;38518;53.164;5.430;2022-11-13T17:46:46;8.90;99.90
51619;DHT22;38518;53.164;5.430;2022-11-13T17:49:12;8.90;99.90
51619;DHT22;38518;53.164;5.430;2022-11-13T17:51:38;8.90;99.90
51619;DHT22;38518;53.164;5.430;2022-11-13T17:54:03;8.80;99.90
51619;DHT22;38518;53.164;5.430;2022-11-13T17:56:29;8.80;99.90
51619;DHT22;38518;53.164;5.430;2022-11-13T17:58:55;8.80;99.90
51619;DHT22;38518;53.164;5.430;2022-11-13T18:01:21;8.80;99.90
51619;DHT22;38518;53.164;5.430;2022-11-13T18:03:53;9.10;99.90
51619;DHT22;38518;53.164;5.430;2022-11-13T18:06:19;8.70;99.90
51619;DHT22;38518;53.164;5.430;2022-11-13T18:08:45;8.70;99.90
51619;DHT22;38518;53.164;5.430;2022-11-13T18:11:23;8.60;99.90
51619;DHT22;38518;53.164;5.430;2022-11-13T18:13:50;8.20;99.90
51619;DHT22;38518;53.164;5.430;2022-11-13T18:16:25;8.60;99.90
51619;DHT22;38518;53.164;5.430;2022-11-13T18:18:53;8.60;99.90
51619;DHT22;38518;53.164;5.430;2022-11-13T18:21:23;8.40;99.90
51619;DHT22;38518;53.164;5.430;2022-11-13T18:23:58;8.50;99.90
51619;DHT22;38518;53.164;5.430;2022-11-13T18:26:25;8.40;99.90
51619;DHT22;38518;53.164;5.430;2022-11-13T18:28:51;8.40;99.90
51619;DHT22;38518;53.164;5.430;2022-11-13T18:31:18;8.40;99.90
51619;DHT22;38518;53.164;5.430;2022-11-13T18:33:44;8.50;99.90
51619;DHT22;38518;53.164;5.430;2022-11-13T18:36:10;8.40;99.90
51619;DHT22;38518;53.164;5.430;2022-11-13T18:38:36;8.30;99.90
51619;DHT22;38518;53.164;5.430;2022-11-13T18:41:10;8.30;99.90
51619;DHT22;38518;53.164;5.430;2022-11-13T18:43:36;8.40;99.90
51619;DHT22;38518;53.164;5.430;2022-11-13T18:46:06;8.20;99.90
51619;DHT22;38518;53.164;5.430;2022-11-13T18:48:40;8.10;99.90
51619;DHT22;38518;53.164;5.430;2022-11-13T18:53:34;8.10;99.90
51619;DHT22;38518;53.164;5.430;2022-11-13T18:56:06;8.10;99.90
51619;DHT22;38518;53.164;5.430;2022-11-13T18:58:37;8.00;99.90
51619;DHT22;38518;53.164;5.430;2022-11-13T19:01:17;7.90;99.90
51619;DHT22;38518;53.164;5.430;2022-11-13T19:03:43;7.90;99.90
